Time;durP1;ratioP1;P1;durP2;ratioP2;P2;SDS_P1;SDS_P2;PMS_P1;PMS_P2;Temp;Humidity;BMP_temperature;BMP_pressure;BME280_temperature;BME280_humidity;BME280_pressure;Samples;Min_cycle;Max_cycle;Signal;HPM_P1;HPM_P2
2023/06/07 00:01:44;;;;;;;17.00;7.22;;;;;;;14.42;100.00;101930.66;5072489;28;20580;-60
2023/06/07 00:04:14;;;;;;;16.58;6.78;;;;;;;14.33;100.00;101926.81;5075890;28;20055;-60
2023/06/07 00:06:44;;;;;;;13.18;6.80;;;;;;;14.33;100.00;101924.16;5072738;28;20052;-60
2023/06/07 00:09:12;;;;;;;15.45;7.55;;;;;;;14.28;100.00;101927.09;5072660;28;20074;-61
2023/06/07 00:11:40;;;;;;;14.57;6.13;;;;;;;14.35;100.00;101925.75;5075498;28;20056;-59
2023/06/07 00:14:08;;;;;;;12.98;6.97;;;;;;;14.29;100.00;101930.56;5075313;28;20052;-60
2023/06/07 00:16:36;;;;;;;12.20;6.28;;;;;;;14.41;100.00;101932.47;5073525;28;20053;-59
2023/06/07 00:19:06;;;;;;;14.88;6.40;;;;;;;14.29;100.00;101926.16;5071848;28;20403;-59
2023/06/07 00:21:36;;;;;;;13.10;7.05;;;;;;;14.25;100.00;101931.72;5075348;28;20086;-60
2023/06/07 00:24:06;;;;;;;12.90;7.20;;;;;;;14.27;100.00;101929.84;5075449;28;20051;-60
2023/06/07 00:26:34;;;;;;;14.98;6.88;;;;;;;14.23;100.00;101933.63;5075395;28;20045;-62
2023/06/07 00:29:03;;;;;;;12.40;7.03;;;;;;;14.25;100.00;101927.28;5075283;28;20541;-60
2023/06/07 00:31:31;;;;;;;14.85;6.97;;;;;;;14.23;100.00;101933.63;5075388;28;20045;-61
2023/06/07 00:33:59;;;;;;;15.32;6.95;;;;;;;14.08;100.00;101935.44;5057471;28;20456;-60
2023/06/07 00:36:28;;;;;;;11.45;6.15;;;;;;;14.09;100.00;101930.06;5074744;28;20331;-52
2023/06/07 00:38:56;;;;;;;14.73;7.05;;;;;;;13.92;100.00;101925.84;5071700;28;20040;-51
2023/06/07 00:41:26;;;;;;;12.75;7.65;;;;;;;13.91;100.00;101918.84;5071176;28;20051;-53
2023/06/07 00:43:54;;;;;;;17.73;6.97;;;;;;;13.81;100.00;101920.34;5072007;28;20058;-50
2023/06/07 00:46:29;;;;;;;13.25;6.68;;;;;;;13.77;100.00;101921.47;5074504;28;20047;-49
2023/06/07 00:48:59;;;;;;;11.90;6.40;;;;;;;13.83;100.00;101921.94;5074608;28;20488;-49
2023/06/07 00:51:29;;;;;;;13.73;6.38;;;;;;;13.82;100.00;101919.41;5074855;28;20036;-47
2023/06/07 00:54:01;;;;;;;15.88;6.32;;;;;;;13.77;100.00;101919.69;5074881;28;20040;-53
2023/06/07 00:56:31;;;;;;;16.35;6.88;;;;;;;13.74;100.00;101919.88;5056958;28;20083;-49
2023/06/07 00:59:00;;;;;;;15.82;6.82;;;;;;;13.76;100.00;101919.78;5071411;28;20078;-50
2023/06/07 01:01:28;;;;;;;14.10;6.43;;;;;;;13.75;100.00;101918.09;5070979;28;20044;-52
2023/06/07 01:03:57;;;;;;;18.27;6.75;;;;;;;13.71;100.00;101930.63;5073216;28;20052;-59
2023/06/07 01:06:25;;;;;;;14.93;6.43;;;;;;;13.71;100.00;101927.16;5072042;28;20076;-59
2023/06/07 01:08:53;;;;;;;13.18;6.47;;;;;;;13.64;100.00;101927.50;5070842;28;20045;-59
2023/06/07 01:11:23;;;;;;;13.20;6.43;;;;;;;13.60;100.00;101935.72;5070373;28;20048;-59
2023/06/07 01:13:54;;;;;;;12.70;6.47;;;;;;;13.66;100.00;101930.06;5071023;28;20079;-60
2023/06/07 01:16:22;;;;;;;13.40;6.80;;;;;;;13.55;100.00;101930.72;5072116;28;20040;-60
2023/06/07 01:18:51;;;;;;;15.10;6.40;;;;;;;13.53;100.00;101929.97;5074322;28;20421;-61
2023/06/07 01:21:21;;;;;;;14.85;6.47;;;;;;;13.57;100.00;101928.00;5071888;28;20052;-59
2023/06/07 01:23:51;;;;;;;14.68;6.55;;;;;;;13.56;100.00;101928.94;5071611;28;20064;-59
2023/06/07 01:26:19;;;;;;;14.07;6.47;;;;;;;13.47;100.00;101925.03;5056262;28;20385;-60
2023/06/07 01:28:48;;;;;;;16.98;7.10;;;;;;;13.49;100.00;101923.16;5074677;28;20135;-59
2023/06/07 01:31:16;;;;;;;13.60;6.22;;;;;;;13.35;100.00;101916.03;5074332;28;20049;-59
2023/06/07 01:33:45;;;;;;;13.13;6.45;;;;;;;13.38;100.00;101915.06;5074336;28;20048;-59
2023/06/07 01:36:16;;;;;;;15.82;6.65;;;;;;;13.35;100.00;101916.03;5074433;28;20049;-60
2023/06/07 01:38:45;;;;;;;16.63;6.55;;;;;;;13.49;100.00;101910.78;5070420;28;20517;-59
2023/06/07 01:41:16;;;;;;;15.25;6.97;;;;;;;13.44;100.00;101910.25;5053774;28;20052;-59
2023/06/07 01:43:48;;;;;;;13.88;6.20;;;;;;;13.45;100.00;101905.81;5072383;28;20068;-60
2023/06/07 01:46:17;;;;;;;16.30;6.65;;;;;;;13.42;100.00;101912.13;5070512;28;20044;-60
2023/06/07 01:48:45;;;;;;;13.20;5.97;;;;;;;13.44;100.00;101904.97;5073514;28;20040;-60
2023/06/07 01:51:13;;;;;;;16.40;7.10;;;;;;;13.40;100.00;101907.88;5073833;28;20097;-59
2023/06/07 01:53:42;;;;;;;11.15;6.30;;;;;;;13.42;100.00;101904.19;5055922;28;20048;-60
2023/06/07 01:56:22;;;;;;;13.68;6.28;;;;;;;13.40;100.00;101899.94;5073925;28;20047;-52
2023/06/07 01:59:02;;;;;;;12.75;6.20;;;;;;;13.35;100.00;101908.13;5074102;28;20433;-52
2023/06/07 02:01:36;;;;;;;11.80;6.22;;;;;;;13.30;100.00;101899.63;5073124;28;20044;-49
2023/06/07 02:04:08;;;;;;;14.20;6.30;;;;;;;13.23;100.00;101900.94;5070524;28;20131;-49
2023/06/07 02:06:40;;;;;;;12.85;6.35;;;;;;;13.08;100.00;101897.41;5070210;28;20151;-51
2023/06/07 02:09:12;;;;;;;12.50;6.40;;;;;;;13.11;100.00;101902.50;5069982;28;20041;-50
2023/06/07 02:11:42;;;;;;;15.80;7.80;;;;;;;13.11;100.00;101900.69;5072946;28;20056;-52
2023/06/07 02:14:11;;;;;;;12.00;6.10;;;;;;;13.11;100.00;101907.78;5073320;28;20047;-48
2023/06/07 02:16:40;;;;;;;14.77;6.55;;;;;;;13.02;100.00;101907.38;5072209;28;20071;-48
2023/06/07 02:19:09;;;;;;;16.65;6.60;;;;;;;12.92;100.00;101919.41;5069547;28;20036;-49
2023/06/07 02:21:38;;;;;;;16.20;6.57;;;;;;;12.95;100.00;101913.97;5069992;28;20037;-50
2023/06/07 02:24:07;;;;;;;12.40;6.28;;;;;;;12.88;100.00;101914.41;5069532;28;20052;-48
2023/06/07 02:26:37;;;;;;;14.57;6.63;;;;;;;12.89;100.00;101909.03;5068393;28;20548;-51
2023/06/07 02:29:07;;;;;;;12.98;7.05;;;;;;;12.86;100.00;101911.84;5070368;28;20055;-53
2023/06/07 02:31:35;;;;;;;18.15;6.97;;;;;;;12.84;100.00;101911.94;5072835;28;20058;-48
2023/06/07 02:34:03;;;;;;;16.80;7.60;;;;;;;12.65;100.00;101917.44;5070831;28;20056;-48
2023/06/07 02:36:33;;;;;;;14.43;6.93;;;;;;;12.75;100.00;101917.75;5069371;28;20041;-49
2023/06/07 02:39:01;;;;;;;16.45;6.43;;;;;;;12.58;100.00;101913.41;5069586;28;20044;-58
2023/06/07 02:41:30;;;;;;;17.75;6.68;;;;;;;12.62;100.00;101907.03;5068440;28;20095;-59
2023/06/07 02:43:58;;;;;;;14.27;6.63;;;;;;;12.67;100.00;101906.78;5070485;28;20406;-58
2023/06/07 02:46:31;;;;;;;14.93;6.78;;;;;;;12.71;100.00;101913.59;5072811;28;20052;-59
2023/06/07 02:48:59;;;;;;;12.20;6.93;;;;;;;12.76;100.00;101908.91;5054846;28;20657;-58
2023/06/07 02:51:27;;;;;;;17.20;7.32;;;;;;;12.70;100.00;101906.59;5072905;28;20066;-58
2023/06/07 02:54:00;;;;;;;19.05;6.85;;;;;;;12.71;100.00;101910.94;5072896;28;20094;-61
2023/06/07 02:56:29;;;;;;;13.85;7.50;;;;;;;12.50;100.00;101910.38;5072759;28;20059;-59
2023/06/07 02:58:58;;;;;;;15.15;7.03;;;;;;;12.33;100.00;101912.16;5072925;28;20076;-59
2023/06/07 03:01:27;;;;;;;12.80;7.05;;;;;;;12.33;100.00;101925.34;5069961;28;20044;-59
2023/06/07 03:03:57;;;;;;;14.43;6.53;;;;;;;12.27;100.00;101927.47;5069288;28;20051;-59
2023/06/07 03:06:28;;;;;;;14.90;7.13;;;;;;;12.30;100.00;101922.06;5072985;28;20567;-59
2023/06/07 03:08:57;;;;;;;14.50;6.80;;;;;;;12.36;100.00;101934.88;5054501;28;20135;-60
2023/06/07 03:11:25;;;;;;;14.75;7.03;;;;;;;12.18;100.00;101932.31;5072647;28;20054;-59
2023/06/07 03:13:53;;;;;;;13.52;7.13;;;;;;;12.32;100.00;101926.31;5072531;28;20143;-60
2023/06/07 03:16:22;;;;;;;18.45;7.30;;;;;;;12.31;100.00;101929.88;5072470;28;20087;-60
2023/06/07 03:18:50;;;;;;;13.73;7.18;;;;;;;12.17;100.00;101922.72;5072671;28;20079;-59
2023/06/07 03:21:20;;;;;;;16.52;7.38;;;;;;;12.26;100.00;101929.28;5072213;28;20056;-60
2023/06/07 03:23:48;;;;;;;16.88;6.97;;;;;;;12.34;100.00;101923.59;5072266;28;20048;-59
2023/06/07 03:26:17;;;;;;;15.60;6.50;;;;;;;12.32;100.00;101920.16;5072372;28;20045;-59
2023/06/07 03:28:49;;;;;;;17.15;7.32;;;;;;;12.08;100.00;101925.88;5072208;28;20071;-50
2023/06/07 03:31:17;;;;;;;18.88;7.47;;;;;;;12.04;100.00;101919.06;5071157;28;20097;-51
2023/06/07 03:33:46;;;;;;;17.63;7.00;;;;;;;11.98;100.00;101919.38;5068700;28;20056;-50
2023/06/07 03:36:20;;;;;;;17.63;6.68;;;;;;;12.00;100.00;101926.28;5068658;28;20880;-59
2023/06/07 03:38:50;;;;;;;14.18;7.18;;;;;;;12.05;100.00;101923.38;5073297;28;20063;-50
2023/06/07 03:41:18;;;;;;;13.27;6.57;;;;;;;12.00;100.00;101928.06;5075282;28;20503;-51
2023/06/07 03:43:46;;;;;;;15.77;7.53;;;;;;;11.97;100.00;101929.09;5057803;28;20044;-51
2023/06/07 03:46:15;;;;;;;18.08;7.80;;;;;;;11.84;100.00;101925.38;5074655;28;20072;-52
2023/06/07 03:48:43;;;;;;;14.70;7.22;;;;;;;11.93;100.00;101921.38;5072656;28;20101;-48
2023/06/07 03:51:11;;;;;;;16.88;7.35;;;;;;;12.04;100.00;101926.97;5074411;28;20053;-51
2023/06/07 03:53:39;;;;;;;12.80;6.55;;;;;;;11.87;100.00;101925.19;5076047;28;20060;-50
2023/06/07 03:56:09;;;;;;;17.55;6.85;;;;;;;12.00;100.00;101925.44;5071668;28;20055;-51
2023/06/07 03:58:37;;;;;;;15.65;6.68;;;;;;;11.86;100.00;101918.22;5072283;28;20063;-50
2023/06/07 04:01:05;;;;;;;14.38;6.18;;;;;;;11.94;100.00;101917.81;5072846;28;20075;-52
2023/06/07 04:03:34;;;;;;;13.27;6.35;;;;;;;11.92;100.00;101923.16;5056438;28;20049;-49
2023/06/07 04:06:02;;;;;;;12.48;6.22;;;;;;;11.90;100.00;101919.78;5073718;28;20040;-52
2023/06/07 04:08:30;;;;;;;14.95;6.38;;;;;;;11.92;100.00;101923.16;5071833;28;20044;-51
2023/06/07 04:10:59;;;;;;;15.30;6.40;;;;;;;11.89;100.00;101928.59;5075747;28;20041;-51
2023/06/07 04:13:28;;;;;;;14.70;6.57;;;;;;;11.83;100.00;101931.56;5075666;28;20056;-52
2023/06/07 04:15:56;;;;;;;12.63;6.32;;;;;;;11.75;100.00;101925.84;5075340;28;20090;-50
2023/06/07 04:18:24;;;;;;;14.90;6.95;;;;;;;11.78;100.00;101928.31;5075162;28;20094;-51
2023/06/07 04:20:53;;;;;;;13.07;6.30;;;;;;;11.84;100.00;101925.38;5072035;28;20056;-50
2023/06/07 04:23:22;;;;;;;14.73;6.30;;;;;;;11.78;100.00;101925.66;5072178;28;20052;-50
2023/06/07 04:25:54;;;;;;;12.75;6.63;;;;;;;11.69;100.00;101920.91;5075410;28;20068;-50
2023/06/07 04:28:24;;;;;;;13.90;5.88;;;;;;;11.75;100.00;101928.47;5075402;28;20041;-48
2023/06/07 04:30:53;;;;;;;15.40;7.22;;;;;;;11.72;100.00;101934.75;5073064;28;20618;-50
2023/06/07 04:33:22;;;;;;;15.82;6.40;;;;;;;11.80;100.00;101934.38;5054332;28;20059;-47
2023/06/07 04:35:51;;;;;;;13.57;6.40;;;;;;;11.70;100.00;101925.22;5074952;28;20124;-47
2023/06/07 04:38:21;;;;;;;16.80;6.70;;;;;;;11.83;100.00;101931.56;5075051;28;20044;-51
2023/06/07 04:40:51;;;;;;;14.38;6.10;;;;;;;11.81;100.00;101917.63;5075253;28;20506;-50
2023/06/07 04:43:19;;;;;;;18.70;6.80;;;;;;;11.79;100.00;101924.75;5075054;28;20043;-59
2023/06/07 04:45:53;;;;;;;17.08;7.15;;;;;;;11.71;100.00;101919.03;5075251;28;20043;-59
2023/06/07 04:48:25;;;;;;;16.17;6.20;;;;;;;11.79;100.00;101922.97;5074150;28;20048;-59
2023/06/07 04:50:56;;;;;;;15.43;6.07;;;;;;;11.83;100.00;101927.16;5074485;28;20527;-59
2023/06/07 04:53:24;;;;;;;18.13;6.95;;;;;;;11.82;100.00;101922.81;5074960;28;20062;-59
2023/06/07 04:55:53;;;;;;;16.50;6.47;;;;;;;12.02;100.00;101927.97;5074875;28;20054;-59
2023/06/07 04:58:22;;;;;;;16.67;5.75;;;;;;;12.13;100.00;101925.59;5056864;28;20466;-59
2023/06/07 05:00:51;;;;;;;14.25;5.85;;;;;;;12.31;100.00;101923.72;5074751;28;20064;-59
2023/06/07 05:03:21;;;;;;;18.80;6.20;;;;;;;12.39;100.00;101926.78;5073432;28;20048;-52
2023/06/07 05:05:51;;;;;;;16.10;6.28;;;;;;;12.32;100.00;101934.22;5071156;28;20059;-49
2023/06/07 05:08:23;;;;;;;15.10;6.72;;;;;;;12.43;100.00;101930.13;5073546;28;20040;-49
2023/06/07 05:10:51;;;;;;;14.88;6.78;;;;;;;12.41;100.00;101937.28;5074341;28;20041;-50
2023/06/07 05:13:19;;;;;;;14.27;6.55;;;;;;;12.50;100.00;101939.38;5074751;28;20037;-53
2023/06/07 05:15:50;;;;;;;13.50;6.13;;;;;;;12.51;100.00;101927.91;5056555;28;20579;-59
2023/06/07 05:18:19;;;;;;;15.63;6.40;;;;;;;12.68;100.00;101927.81;5074460;28;20049;-60
2023/06/07 05:20:47;;;;;;;16.73;6.80;;;;;;;12.57;100.00;101935.50;5073837;28;20943;-59
2023/06/07 05:23:17;;;;;;;17.08;6.70;;;;;;;12.63;100.00;101927.22;5071704;28;20050;-50
2023/06/07 05:25:46;;;;;;;14.05;6.00;;;;;;;12.68;100.00;101934.88;5070739;28;20048;-54
2023/06/07 05:28:14;;;;;;;14.05;6.70;;;;;;;12.77;100.00;101922.94;5054914;28;20078;-52
2023/06/07 05:30:42;;;;;;;15.10;6.25;;;;;;;12.81;100.00;101925.31;5070947;28;20532;-53
2023/06/07 05:33:10;;;;;;;15.60;6.45;;;;;;;12.94;100.00;101932.53;5072815;28;20399;-58
2023/06/07 05:35:39;;;;;;;13.93;5.88;;;;;;;13.00;100.00;101933.00;5074108;28;20499;-50
2023/06/07 05:38:08;;;;;;;14.65;5.47;;;;;;;12.93;100.00;101930.84;5073971;28;20442;-51
2023/06/07 05:40:37;;;;;;;14.13;5.75;;;;;;;13.02;100.00;101944.34;5072852;28;20171;-52
2023/06/07 05:43:06;;;;;;;15.95;6.22;;;;;;;13.09;100.00;101946.63;5069541;28;20560;-50
2023/06/07 05:45:35;;;;;;;13.32;5.65;;;;;;;13.10;100.00;101945.69;5071938;28;20040;-49
2023/06/07 05:48:03;;;;;;;12.65;5.75;;;;;;;13.19;100.00;101950.44;5071915;28;20069;-47
2023/06/07 05:50:31;;;;;;;13.95;5.93;;;;;;;13.24;100.00;101952.78;5051608;28;20403;-53
2023/06/07 05:52:59;;;;;;;16.17;6.60;;;;;;;13.29;100.00;101954.25;5073434;28;20048;-50
2023/06/07 05:55:28;;;;;;;15.43;6.22;;;;;;;13.43;100.00;101947.31;5070239;28;20048;-49
2023/06/07 05:58:00;;;;;;;13.95;5.90;;;;;;;13.45;100.00;101950.72;5070609;28;20048;-60
2023/06/07 06:00:28;;;;;;;14.63;6.53;;;;;;;13.50;100.00;101946.03;5072920;28;20051;-59
2023/06/07 06:02:57;;;;;;;15.25;6.20;;;;;;;13.48;100.00;101946.13;5073724;28;20435;-60
2023/06/07 06:05:27;;;;;;;15.65;6.38;;;;;;;13.51;100.00;101948.56;5073405;28;20446;-58
2023/06/07 06:07:57;;;;;;;14.77;6.55;;;;;;;13.62;100.00;101950.56;5073053;28;20048;-59
2023/06/07 06:10:28;;;;;;;16.08;6.25;;;;;;;13.55;100.00;101953.66;5069367;28;20392;-59
2023/06/07 06:13:00;;;;;;;16.88;6.63;;;;;;;13.65;100.00;101954.81;5068881;28;20559;-59
2023/06/07 06:15:28;;;;;;;18.48;6.38;;;;;;;13.56;100.00;101960.66;5052562;28;20076;-59
2023/06/07 06:17:56;;;;;;;17.38;6.30;;;;;;;13.66;100.00;101957.38;5070753;28;20041;-59
2023/06/07 06:20:25;;;;;;;13.43;6.25;;;;;;;13.77;100.00;101962.00;5073299;28;20052;-52
2023/06/07 06:22:53;;;;;;;13.73;6.00;;;;;;;13.80;100.00;101964.44;5071751;28;20036;-51
2023/06/07 06:25:24;;;;;;;15.27;7.00;;;;;;;13.72;100.00;101972.00;5069532;28;20102;-59
2023/06/07 06:27:52;;;;;;;17.30;7.25;;;;;;;13.77;100.00;101969.94;5068620;28;20082;-51
2023/06/07 06:30:26;;;;;;;19.23;7.03;;;;;;;13.91;100.00;101968.25;5069753;28;20041;-48
2023/06/07 06:32:54;;;;;;;12.98;6.50;;;;;;;13.99;100.00;101968.63;5070174;28;20557;-58
2023/06/07 06:35:22;;;;;;;14.02;6.43;;;;;;;14.07;100.00;101969.00;5070295;28;20048;-59
2023/06/07 06:37:51;;;;;;;13.15;6.70;;;;;;;14.09;100.00;101963.59;5070970;28;20040;-49
2023/06/07 06:40:20;;;;;;;14.77;6.53;;;;;;;14.03;100.00;101959.56;5068982;28;20057;-50
2023/06/07 06:42:49;;;;;;;15.95;7.00;;;;;;;14.05;100.00;101968.22;5071869;28;20045;-52
2023/06/07 06:45:17;;;;;;;16.27;6.97;;;;;;;14.09;100.00;101969.72;5072533;28;20048;-50
2023/06/07 06:47:46;;;;;;;18.05;6.82;;;;;;;14.01;100.00;101972.00;5072504;28;20158;-49
2023/06/07 06:50:15;;;;;;;19.17;6.80;;;;;;;14.12;100.00;101992.50;5070247;28;20037;-49
2023/06/07 06:52:59;;;;;;;15.98;6.55;;;;;;;14.33;100.00;101988.50;5069889;28;20044;-59
2023/06/07 06:55:28;;;;;;;16.33;6.78;;;;;;;14.45;100.00;101988.69;5072540;28;20048;-52
2023/06/07 06:57:57;;;;;;;16.10;7.05;;;;;;;14.42;100.00;101991.53;5072001;28;20053;-49
2023/06/07 07:00:25;;;;;;;16.20;6.53;;;;;;;14.51;100.00;101986.50;5051817;28;20056;-60
2023/06/07 07:02:55;;;;;;;17.45;6.80;;;;;;;14.47;100.00;101989.44;5069831;28;20048;-60
2023/06/07 07:05:24;;;;;;;14.50;5.97;;;;;;;14.56;100.00;101988.00;5071315;28;20040;-60
2023/06/07 07:07:56;;;;;;;16.13;6.68;;;;;;;14.55;100.00;101987.16;5072791;28;20068;-60
2023/06/07 07:10:24;;;;;;;15.00;6.40;;;;;;;14.68;100.00;101985.47;5054460;28;20081;-61
2023/06/07 07:12:52;;;;;;;18.90;6.38;;;;;;;14.61;100.00;101980.63;5072266;28;20051;-60
2023/06/07 07:15:21;;;;;;;14.95;6.57;;;;;;;14.61;100.00;101980.63;5070762;28;20048;-61
2023/06/07 07:17:49;;;;;;;12.52;6.45;;;;;;;14.66;100.00;101978.56;5069502;28;20052;-59
2023/06/07 07:20:19;;;;;;;17.23;6.75;;;;;;;14.80;100.00;101975.00;5071526;28;20186;-60
2023/06/07 07:22:47;;;;;;;12.77;6.90;;;;;;;14.83;100.00;101980.97;5072407;28;20553;-59
2023/06/07 07:25:16;;;;;;;14.65;7.13;;;;;;;14.89;100.00;101969.13;5072538;28;20044;-59
2023/06/07 07:27:45;;;;;;;15.45;7.13;;;;;;;15.05;100.00;101982.19;5071786;28;20044;-60
2023/06/07 07:30:13;;;;;;;17.27;7.63;;;;;;;15.12;100.00;101983.50;5052114;28;20492;-59
2023/06/07 07:32:41;;;;;;;17.88;6.95;;;;;;;15.19;100.00;101991.88;5051366;28;20170;-61
2023/06/07 07:35:09;;;;;;;21.48;7.70;;;;;;;15.40;100.00;101999.34;5071564;28;20055;-59
2023/06/07 07:37:39;;;;;;;18.95;7.90;;;;;;;15.42;100.00;102000.06;5069536;28;20129;-52
2023/06/07 07:40:09;;;;;;;14.27;6.55;;;;;;;15.58;100.00;102008.69;5050715;28;20572;-49
2023/06/07 07:42:39;;;;;;;19.83;7.70;;;;;;;15.89;100.00;101996.00;5049831;28;20049;-49
2023/06/07 07:45:08;;;;;;;14.32;6.70;;;;;;;16.03;100.00;101995.91;5069299;28;20111;-49
2023/06/07 07:47:37;;;;;;;18.25;7.25;;;;;;;16.27;100.00;101994.28;5053919;28;20057;-60
2023/06/07 07:50:09;;;;;;;15.60;6.95;;;;;;;16.34;100.00;101995.53;5071932;28;20403;-52
2023/06/07 07:52:38;;;;;;;17.30;6.65;;;;;;;16.49;100.00;101998.91;5072094;28;20037;-52
2023/06/07 07:55:08;;;;;;;15.20;6.55;;;;;;;16.58;100.00;101992.94;5070350;28;20040;-53
2023/06/07 07:57:37;;;;;;;16.63;7.05;;;;;;;16.62;100.00;101997.06;5067979;28;20410;-50
2023/06/07 08:00:09;;;;;;;14.32;6.63;;;;;;;16.67;100.00;101989.56;5071400;28;20052;-52
2023/06/07 08:02:37;;;;;;;18.40;7.18;;;;;;;16.77;100.00;101991.56;5070462;28;20037;-53
2023/06/07 08:05:06;;;;;;;13.65;6.43;;;;;;;16.76;100.00;101989.88;5068658;28;20102;-50
2023/06/07 08:07:35;;;;;;;15.35;5.88;;;;;;;16.98;100.00;101983.88;5069481;28;20086;-48
2023/06/07 08:10:05;;;;;;;13.40;6.03;;;;;;;17.17;100.00;101988.66;5070974;28;20051;-51
2023/06/07 08:12:34;;;;;;;13.30;6.20;;;;;;;17.28;100.00;101996.66;5071719;28;20044;-52
2023/06/07 08:15:05;;;;;;;17.17;6.65;;;;;;;17.24;100.00;102000.50;5071743;28;20559;-61
2023/06/07 08:17:36;;;;;;;13.98;6.63;;;;;;;17.34;100.00;102005.97;5070024;28;20086;-60
2023/06/07 08:20:08;;;;;;;13.90;5.93;;;;;;;17.49;100.00;102003.97;5068081;28;20056;-60
2023/06/07 08:22:37;;;;;;;12.10;5.97;;;;;;;17.65;100.00;101995.66;5069189;28;20102;-60
2023/06/07 08:25:09;;;;;;;14.57;6.63;;;;;;;17.85;100.00;101999.44;5075496;28;20040;-61
2023/06/07 08:27:37;;;;;;;14.40;6.20;;;;;;;17.90;100.00;101994.59;5075465;28;20049;-61
2023/06/07 08:30:07;;;;;;;13.57;6.28;;;;;;;18.13;100.00;101998.13;5074162;28;20049;-60
2023/06/07 08:32:35;;;;;;;13.18;6.15;;;;;;;18.22;100.00;101989.41;5072405;28;20506;-61
2023/06/07 08:35:04;;;;;;;16.83;6.95;;;;;;;18.37;100.00;101991.84;5072177;28;20368;-59
2023/06/07 08:37:32;;;;;;;13.60;6.15;;;;;;;18.45;99.96;101988.53;5071785;28;20086;-61
2023/06/07 08:40:00;;;;;;;17.35;7.25;;;;;;;18.50;99.99;101984.56;5073784;28;20075;-61
2023/06/07 08:42:30;;;;;;;14.85;6.57;;;;;;;18.78;100.00;101984.13;5075152;28;20044;-62
2023/06/07 08:44:58;;;;;;;13.13;6.35;;;;;;;18.92;100.00;101987.38;5075293;28;20060;-61
2023/06/07 08:47:29;;;;;;;12.25;6.13;;;;;;;18.97;98.44;101992.31;5072854;28;20045;-60
2023/06/07 08:49:58;;;;;;;13.40;6.50;;;;;;;19.05;97.61;101983.69;5072179;28;20044;-62
2023/06/07 08:52:26;;;;;;;15.70;6.40;;;;;;;19.16;97.10;101983.63;5074222;28;20043;-61
2023/06/07 08:54:59;;;;;;;13.32;6.13;;;;;;;19.25;98.11;101984.66;5072226;28;20090;-61
2023/06/07 08:57:28;;;;;;;12.88;6.15;;;;;;;19.16;96.32;101990.78;5070448;28;20156;-60
2023/06/07 08:59:58;;;;;;;14.52;6.40;;;;;;;19.15;96.57;101986.41;5072463;28;20053;-61
2023/06/07 09:02:27;;;;;;;15.23;6.65;;;;;;;19.17;97.52;101987.13;5074178;28;20072;-60
2023/06/07 09:04:55;;;;;;;11.57;5.50;;;;;;;19.31;97.01;101992.16;5074969;28;20076;-60
2023/06/07 09:07:24;;;;;;;17.25;7.25;;;;;;;19.43;96.10;101992.94;5074911;28;20045;-61
2023/06/07 09:09:52;;;;;;;14.88;6.82;;;;;;;19.41;97.35;101990.41;5074930;28;20041;-62
2023/06/07 09:12:20;;;;;;;15.60;6.75;;;;;;;19.33;98.08;101992.00;5074500;28;20037;-62
2023/06/07 09:14:48;;;;;;;14.52;6.85;;;;;;;19.43;96.45;101988.44;5073209;28;20048;-52
2023/06/07 09:17:17;;;;;;;13.70;6.78;;;;;;;19.63;95.51;101982.38;5074512;28;20123;-53
2023/06/07 09:19:49;;;;;;;;;;;;;;;19.72;96.56;101981.59;5074875;28;20059;-52
2023/06/07 09:22:25;;;;;;;14.20;6.95;;;;;;;19.64;95.32;101978.75;5074680;28;19973;-52
2023/06/07 09:24:54;;;;;;;15.15;6.65;;;;;;;19.71;95.17;101977.22;5074352;28;20659;-61
2023/06/07 09:27:30;;;;;;;20.05;7.20;;;;;;;19.69;95.29;101987.19;5074221;28;20123;-50
2023/06/07 09:30:05;;;;;;;13.98;6.90;;;;;;;19.74;95.01;101979.63;5071589;28;20044;-59
2023/06/07 09:32:38;;;;;;;15.18;6.70;;;;;;;19.84;95.83;101975.22;5071199;28;20045;-51
2023/06/07 09:35:13;;;;;;;14.32;6.90;;;;;;;19.82;96.41;101976.31;5072076;28;20065;-52
2023/06/07 09:37:44;;;;;;;12.82;7.43;;;;;;;19.73;97.37;101978.78;5073820;28;20062;-62
2023/06/07 09:40:14;;;;;;;16.67;6.78;;;;;;;19.70;100.00;101979.06;5070593;28;20056;-61
2023/06/07 09:42:44;;;;;;;14.27;6.60;;;;;;;19.81;100.00;101974.63;5070015;28;20048;-62
2023/06/07 09:45:13;;;;;;;16.52;6.75;;;;;;;19.76;100.00;101973.19;5070537;28;20048;-62
2023/06/07 09:47:43;;;;;;;14.15;7.03;;;;;;;19.57;100.00;101973.09;5070325;28;20044;-62
2023/06/07 09:50:13;;;;;;;15.60;6.72;;;;;;;19.71;100.00;101970.06;5067927;28;20048;-62
2023/06/07 09:52:41;;;;;;;15.93;7.07;;;;;;;19.29;100.00;101967.41;5070092;28;20153;-62
2023/06/07 09:55:27;;;;;;;13.25;6.60;;;;;;;19.11;100.00;101964.50;5071122;28;20044;-62
2023/06/07 09:57:56;;;;;;;14.60;7.38;;;;;;;19.16;100.00;101970.28;5073541;28;20044;-62
2023/06/07 10:00:26;;;;;;;17.30;7.25;;;;;;;19.32;100.00;101977.84;5073658;28;20044;-62
2023/06/07 10:03:06;;;;;;;12.25;6.85;;;;;;;19.33;100.00;101982.19;5073536;28;20119;-62
2023/06/07 10:05:35;;;;;;;11.75;6.70;;;;;;;19.23;100.00;101967.94;5069678;28;20059;-62
2023/06/07 10:08:05;;;;;;;16.42;7.70;;;;;;;19.29;100.00;101979.91;5070111;28;20057;-63
2023/06/07 10:10:34;;;;;;;16.05;7.45;;;;;;;19.42;100.00;101973.41;5070182;28;20076;-62
2023/06/07 10:13:04;;;;;;;14.77;7.65;;;;;;;19.42;100.00;101976.06;5050817;28;20134;-61
2023/06/07 10:15:35;;;;;;;15.88;7.95;;;;;;;19.47;100.00;101966.81;5070333;28;20076;-61
2023/06/07 10:18:16;;;;;;;15.07;8.18;;;;;;;19.50;100.00;101966.59;5070908;28;20119;-61
2023/06/07 10:20:52;;;;;;;13.45;7.75;;;;;;;19.37;100.00;101962.31;5071190;28;20090;-61
2023/06/07 10:23:28;;;;;;;16.48;7.60;;;;;;;19.54;100.00;101962.69;5070270;28;20400;-60
2023/06/07 10:26:00;;;;;;;17.08;7.75;;;;;;;19.68;100.00;101969.50;5069461;28;20358;-61
2023/06/07 10:28:33;;;;;;;15.15;7.38;;;;;;;19.88;100.00;101957.97;5069014;28;20052;-63
2023/06/07 10:31:05;;;;;;;14.23;8.35;;;;;;;20.08;100.00;101960.69;5071583;28;20045;-60
2023/06/07 10:33:36;;;;;;;14.60;7.60;;;;;;;20.20;100.00;101958.75;5072864;28;20430;-62
2023/06/07 10:36:07;;;;;;;13.75;7.65;;;;;;;20.35;99.81;101946.69;5070249;28;20163;-62
2023/06/07 10:38:37;;;;;;;14.55;7.32;;;;;;;20.59;100.00;101946.31;5070255;28;20056;-63
2023/06/07 10:41:06;;;;;;;15.50;6.80;;;;;;;20.90;97.93;101945.38;5070850;28;20055;-62
2023/06/07 10:43:35;;;;;;;17.02;6.78;;;;;;;20.99;90.28;101935.69;5069564;28;20072;-62
2023/06/07 10:46:23;;;;;;;13.82;7.05;;;;;;;21.14;90.59;101933.41;5071337;28;20052;-61
2023/06/07 10:48:54;;;;;;;17.42;6.95;;;;;;;21.18;91.71;101940.16;5072609;28;20056;-62
2023/06/07 10:52:00;;;;;;;14.52;6.57;;;;;;;21.25;89.87;101935.91;5072608;28;20048;-62
2023/06/07 10:54:31;;;;;;;12.95;7.03;;;;;;;21.30;89.05;101936.31;5072634;28;20127;-53
2023/06/07 10:57:00;;;;;;;13.55;6.30;;;;;;;21.48;87.02;101932.91;5072788;28;20044;-61
2023/06/07 10:59:28;;;;;;;12.65;6.70;;;;;;;21.45;86.22;101929.53;5071523;28;20048;-62
2023/06/07 11:02:21;;;;;;;13.93;6.07;;;;;;;21.40;85.37;101920.25;5069589;28;20068;-61
2023/06/07 11:04:57;;;;;;;14.25;6.68;;;;;;;21.44;88.21;101927.81;5069057;28;20754;-54
2023/06/07 11:07:30;;;;;;;12.48;5.88;;;;;;;21.52;86.15;101926.28;5071943;28;20559;-53
2023/06/07 11:10:33;;;;;;;11.10;5.65;;;;;;;21.80;84.97;101929.00;5072461;28;20045;-52
2023/06/07 11:13:03;;;;;;;13.80;5.93;;;;;;;22.00;85.62;101935.13;5070546;28;20102;-52
2023/06/07 11:15:36;;;;;;;10.75;5.63;;;;;;;22.16;83.83;101931.81;5069330;28;20048;-55
2023/06/07 11:18:08;;;;;;;13.43;6.00;;;;;;;22.39;86.93;101927.72;5069486;28;20100;-54
2023/06/07 11:20:52;;;;;;;13.05;5.97;;;;;;;22.50;81.81;101925.81;5068836;28;20059;-55
2023/06/07 11:23:25;;;;;;;15.38;6.55;;;;;;;22.56;82.49;101919.84;5070635;28;20447;-53
2023/06/07 11:25:58;;;;;;;14.23;6.65;;;;;;;22.57;80.60;101918.84;5069221;28;20070;-54